Time;durP1;ratioP1;P1;durP2;ratioP2;P2;SDS_P1;SDS_P2;PMS_P1;PMS_P2;Temp;Humidity;BMP_temperature;BMP_pressure;BME280_temperature;BME280_humidity;BME280_pressure;Samples;Min_cycle;Max_cycle;Signal;HPM_P1;HPM_P2
2023/02/06 00:00:40;;;;;;;29.92;14.80;;;;;;;2.19;82.69;103497.50;5026306;28;20084;-43
2023/02/06 00:03:08;;;;;;;34.10;15.20;;;;;;;2.23;83.01;103506.91;5031118;28;20462;-44
2023/02/06 00:05:35;;;;;;;37.10;14.93;;;;;;;2.24;83.17;103506.72;5029274;28;20376;-43
2023/02/06 00:08:03;;;;;;;34.85;14.75;;;;;;;2.25;83.15;103510.28;5032164;28;20115;-44
2023/02/06 00:10:29;;;;;;;42.72;15.55;;;;;;;2.27;82.98;103514.47;5034230;28;20044;-45
2023/02/06 00:12:56;;;;;;;33.63;14.85;;;;;;;2.29;83.30;103509.63;5031500;28;20041;-44
2023/02/06 00:15:23;;;;;;;28.40;13.80;;;;;;;2.36;83.34;103517.75;5030544;28;20050;-46
2023/02/06 00:17:49;;;;;;;32.13;15.15;;;;;;;2.40;83.40;103517.09;5030437;28;20056;-43
2023/02/06 00:20:16;;;;;;;31.80;15.20;;;;;;;2.50;83.36;103518.47;5031031;28;20057;-47
2023/02/06 00:22:43;;;;;;;36.67;14.50;;;;;;;2.56;83.34;103512.13;5030359;28;20104;-43
2023/02/06 00:25:10;;;;;;;24.58;14.52;;;;;;;2.60;83.25;103516.06;5030248;28;20136;-49
2023/02/06 00:27:36;;;;;;;32.60;14.98;;;;;;;2.64;83.28;103518.16;5028992;28;20454;-45
2023/02/06 00:30:04;;;;;;;33.97;14.93;;;;;;;2.71;83.39;103513.44;5029960;28;20045;-43
2023/02/06 00:32:30;;;;;;;35.28;15.18;;;;;;;2.76;83.58;103505.38;5029968;28;20045;-50
2023/02/06 00:34:57;;;;;;;35.72;14.05;;;;;;;2.79;83.56;103502.22;5031689;28;20127;-46
2023/02/06 00:37:24;;;;;;;31.40;14.55;;;;;;;2.84;83.47;103510.56;5030204;28;20049;-46
2023/02/06 00:39:50;;;;;;;33.70;13.40;;;;;;;2.89;83.56;103497.03;5029758;28;20060;-44
2023/02/06 00:42:17;;;;;;;33.20;15.50;;;;;;;2.95;83.63;103487.94;5030005;28;20053;-49
2023/02/06 00:44:44;;;;;;;33.83;15.27;;;;;;;2.95;83.62;103485.19;5030169;28;20504;-45
2023/02/06 00:47:10;;;;;;;35.17;16.00;;;;;;;3.01;83.81;103487.03;5029505;28;20048;-47
2023/02/06 00:49:37;;;;;;;29.83;13.45;;;;;;;3.05;83.82;103485.50;5023316;28;20058;-43
2023/02/06 00:52:03;;;;;;;32.30;14.65;;;;;;;3.11;83.74;103477.44;5029594;28;20086;-51
2023/02/06 00:54:30;;;;;;;77.93;30.30;;;;;;;3.13;83.70;103470.66;5029826;28;20490;-45
2023/02/06 00:56:57;;;;;;;46.78;21.90;;;;;;;3.15;84.19;103467.72;5027105;28;20065;-45
2023/02/06 00:59:24;;;;;;;78.45;30.17;;;;;;;3.20;84.14;103467.88;5029253;28;20139;-43
2023/02/06 01:01:50;;;;;;;42.08;18.88;;;;;;;3.23;83.89;103460.00;5029373;28;20060;-48
2023/02/06 01:04:17;;;;;;;24.38;14.25;;;;;;;3.24;84.12;103466.31;5029072;28;20042;-43
2023/02/06 01:06:44;;;;;;;34.08;15.57;;;;;;;3.25;84.16;103463.38;5029161;28;20136;-45
2023/02/06 01:09:10;;;;;;;39.58;16.80;;;;;;;3.30;84.45;103459.94;5029006;28;20057;-43
2023/02/06 01:11:38;;;;;;;33.88;16.95;;;;;;;3.30;84.26;103457.19;5033190;28;20723;-44
2023/02/06 01:14:05;;;;;;;30.60;15.50;;;;;;;3.32;84.65;103460.53;5029250;28;20403;-48
2023/02/06 01:16:31;;;;;;;39.05;15.40;;;;;;;3.37;84.46;103456.03;5029158;28;20099;-43
2023/02/06 01:18:58;;;;;;;39.00;19.90;;;;;;;3.40;84.55;103450.09;5028904;28;20443;-46
2023/02/06 01:21:25;;;;;;;47.75;21.65;;;;;;;3.44;84.69;103450.47;5024580;28;20168;-44
2023/02/06 01:23:53;;;;;;;33.05;14.90;;;;;;;3.44;84.66;103439.53;5026404;28;20144;-46
2023/02/06 01:26:23;;;;;;;31.65;15.23;;;;;;;3.45;84.90;103435.72;5012398;28;20049;-50
2023/02/06 01:28:50;;;;;;;38.33;16.67;;;;;;;3.47;84.74;103444.50;5029670;28;20722;-44
2023/02/06 01:31:16;;;;;;;35.95;16.10;;;;;;;3.48;84.71;103444.31;5023311;28;20054;-44
2023/02/06 01:33:45;;;;;;;28.38;13.95;;;;;;;3.46;85.06;103435.50;5030997;28;20495;-43
2023/02/06 01:36:12;;;;;;;29.08;12.98;;;;;;;3.46;85.04;103435.50;5028744;28;20552;-49
2023/02/06 01:38:40;;;;;;;30.48;15.05;;;;;;;3.43;84.74;103432.38;5028471;28;20073;-44
2023/02/06 01:41:07;;;;;;;28.55;13.77;;;;;;;3.43;85.16;103432.38;5029035;28;20144;-44
2023/02/06 01:43:37;;;;;;;29.30;13.10;;;;;;;3.44;84.92;103443.09;5016647;28;20407;-44
2023/02/06 01:46:05;;;;;;;33.38;13.88;;;;;;;3.45;85.53;103442.03;5029222;28;20045;-48
2023/02/06 01:48:41;;;;;;;30.85;14.63;;;;;;;3.43;85.07;103444.16;5028380;28;20091;-44
2023/02/06 01:51:13;;;;;;;31.38;13.40;;;;;;;3.43;85.31;103441.44;5028134;28;20041;-43
2023/02/06 01:53:43;;;;;;;26.67;13.10;;;;;;;3.42;85.46;103436.16;5016033;28;20403;-44
2023/02/06 01:56:10;;;;;;;29.40;14.55;;;;;;;3.40;85.30;103433.66;5025199;28;20164;-44
2023/02/06 01:58:41;;;;;;;30.75;14.45;;;;;;;3.38;85.74;103424.88;5026536;28;20128;-47
2023/02/06 02:01:08;;;;;;;22.23;11.98;;;;;;;3.37;85.57;103434.13;5026212;28;20156;-45
2023/02/06 02:03:39;;;;;;;27.95;13.07;;;;;;;3.32;85.45;103422.19;5027603;28;20045;-43
2023/02/06 02:06:09;;;;;;;28.52;13.48;;;;;;;3.26;85.53;103423.13;5025015;28;20566;-45
2023/02/06 02:08:39;;;;;;;30.33;12.25;;;;;;;3.23;85.69;103431.81;5027417;28;20136;-50
2023/02/06 02:11:08;;;;;;;24.30;10.90;;;;;;;3.21;85.74;103433.94;5038255;28;20041;-44
2023/02/06 02:13:37;;;;;;;27.17;11.23;;;;;;;3.25;85.78;103435.16;5032122;28;20049;-45
2023/02/06 02:16:24;;;;;;;28.45;12.27;;;;;;;3.26;85.96;103429.44;5030538;28;20045;-43
2023/02/06 02:19:03;;;;;;;29.15;12.27;;;;;;;3.29;86.04;103419.91;5030212;28;20073;-44
2023/02/06 02:22:03;;;;;;;23.65;10.07;;;;;;;3.31;85.76;103423.28;5027532;28;20077;-45
2023/02/06 02:25:11;;;;;;;20.27;10.25;;;;;;;3.33;85.99;103407.44;5021977;28;20046;-45
2023/02/06 02:28:20;;;;;;;23.50;11.23;;;;;;;3.37;85.88;103406.75;5025216;28;20601;-42
2023/02/06 02:31:09;;;;;;;28.60;11.70;;;;;;;3.40;85.75;103411.75;5031167;28;20042;-46
2023/02/06 02:34:05;;;;;;;17.00;9.98;;;;;;;3.40;85.95;103402.72;5033065;28;20133;-48
2023/02/06 02:36:50;;;;;;;23.17;10.05;;;;;;;3.43;85.77;103394.88;5016932;28;20095;-46
2023/02/06 02:39:38;;;;;;;31.55;11.13;;;;;;;3.45;85.87;103403.69;5034979;28;20144;-43
2023/02/06 02:42:19;;;;;;;21.15;10.13;;;;;;;3.46;85.64;103397.16;5035099;28;20462;-47
2023/02/06 02:44:55;;;;;;;23.08;12.18;;;;;;;3.46;85.95;103401.78;5031109;28;20052;-43
2023/02/06 02:47:29;;;;;;;18.33;11.15;;;;;;;3.47;85.90;103395.22;5035211;28;20053;-47
2023/02/06 02:49:59;;;;;;;24.60;11.57;;;;;;;3.48;85.75;103388.69;5033566;28;20396;-45
2023/02/06 02:52:27;;;;;;;29.40;10.65;;;;;;;3.48;85.78;103388.69;5034677;28;20128;-43
2023/02/06 02:54:54;;;;;;;28.80;14.65;;;;;;;3.50;86.25;103390.13;5032373;28;20430;-44
2023/02/06 02:57:27;;;;;;;33.80;12.32;;;;;;;3.53;86.06;103388.81;5032546;28;20045;-43
2023/02/06 02:59:58;;;;;;;27.10;12.00;;;;;;;3.54;85.97;103382.28;5027723;28;20592;-46
2023/02/06 03:02:32;;;;;;;22.42;11.45;;;;;;;3.57;86.27;103384.56;4968032;22;20061;-44
2023/02/06 03:05:04;;;;;;;36.72;12.50;;;;;;;3.59;85.97;103376.94;5049173;28;20041;-44
2023/02/06 03:07:58;;;;;;;20.95;10.60;;;;;;;3.61;86.28;103369.31;5049316;28;20068;-43
2023/02/06 03:10:52;;;;;;;20.95;10.55;;;;;;;3.63;86.31;103368.00;5049704;28;20056;-45
2023/02/06 03:13:47;;;;;;;22.88;10.10;;;;;;;3.64;86.44;103364.22;5051956;28;20091;-45
2023/02/06 03:16:25;;;;;;;25.80;11.48;;;;;;;3.65;86.20;103365.06;5047397;28;20445;-43
2023/02/06 03:19:00;;;;;;;24.38;11.57;;;;;;;3.68;86.37;103364.56;5049989;28;20044;-43
2023/02/06 03:21:28;;;;;;;22.40;9.85;;;;;;;3.69;86.63;103355.28;5048422;28;20092;-44
2023/02/06 03:23:58;;;;;;;19.70;10.50;;;;;;;3.68;86.72;103354.44;5046994;28;20741;-46
2023/02/06 03:26:27;;;;;;;22.42;9.75;;;;;;;3.68;86.58;103359.91;5023218;28;20050;-45
2023/02/06 03:29:01;;;;;;;21.95;9.80;;;;;;;3.69;86.54;103356.13;5048386;28;20049;-44
2023/02/06 03:31:38;;;;;;;23.65;10.88;;;;;;;3.71;86.64;103347.66;5051267;28;20059;-45
2023/02/06 03:34:33;;;;;;;22.13;9.57;;;;;;;3.72;86.44;103352.06;5041076;28;20052;-44
2023/02/06 03:37:00;;;;;;;17.20;10.18;;;;;;;3.70;86.87;103346.00;4999878;28;20147;-44
2023/02/06 03:39:27;;;;;;;16.63;9.75;;;;;;;3.65;86.40;103337.66;5050996;28;20402;-44
2023/02/06 03:41:58;;;;;;;22.02;10.43;;;;;;;3.57;86.63;103335.25;5050711;28;20041;-44
2023/02/06 03:44:29;;;;;;;24.77;11.65;;;;;;;3.45;86.81;103331.66;5047697;28;20104;-51
2023/02/06 03:46:58;;;;;;;24.60;11.15;;;;;;;3.35;86.88;103331.38;5050460;28;20153;-44
2023/02/06 03:49:28;;;;;;;27.17;13.50;;;;;;;3.25;86.57;103333.84;5051137;28;20048;-44
2023/02/06 03:52:27;;;;;;;26.73;11.48;;;;;;;3.18;86.64;103325.72;5032817;28;20091;-44
2023/02/06 03:55:03;;;;;;;41.28;14.05;;;;;;;3.06;86.87;103320.25;5018544;28;20057;-44
2023/02/06 03:57:32;;;;;;;25.95;11.55;;;;;;;2.98;86.80;103330.66;5049868;28;20048;-43
2023/02/06 03:59:59;;;;;;;40.38;14.77;;;;;;;2.92;86.81;103324.22;5046901;28;20052;-49
2023/02/06 04:02:27;;;;;;;38.72;14.43;;;;;;;2.84;86.74;103319.06;5048397;28;20060;-47
2023/02/06 04:04:57;;;;;;;25.77;12.07;;;;;;;2.79;86.52;103310.72;5043948;28;20376;-44
2023/02/06 04:07:26;;;;;;;32.15;13.13;;;;;;;2.70;86.33;103317.56;5050563;28;20089;-43
2023/02/06 04:09:53;;;;;;;27.50;12.63;;;;;;;2.64;86.81;103310.28;5044020;28;20052;-48
2023/02/06 04:12:21;;;;;;;29.85;12.23;;;;;;;2.58;86.76;103319.41;5049627;28;20073;-43
2023/02/06 04:14:48;;;;;;;23.55;13.10;;;;;;;2.51;86.83;103313.19;5030410;28;20107;-43
2023/02/06 04:17:15;;;;;;;32.33;13.57;;;;;;;2.46;86.87;103302.13;5047553;28;20301;-43
2023/02/06 04:20:03;;;;;;;26.92;10.70;;;;;;;2.43;86.74;103299.84;5045585;28;20049;-45
2023/02/06 04:22:30;;;;;;;26.42;11.00;;;;;;;2.41;87.06;103307.41;5047238;28;20037;-44
2023/02/06 04:24:57;;;;;;;27.00;13.05;;;;;;;2.38;86.90;103296.94;5043403;28;20040;-44
2023/02/06 04:27:23;;;;;;;25.50;11.68;;;;;;;2.34;86.70;103292.97;5047861;28;20709;-44
2023/02/06 04:29:50;;;;;;;19.85;10.05;;;;;;;2.30;86.67;103294.53;5046378;28;20045;-43
2023/02/06 04:32:17;;;;;;;24.80;11.02;;;;;;;2.27;87.04;103289.50;5041096;28;20049;-43
2023/02/06 04:34:43;;;;;;;24.30;10.57;;;;;;;2.25;86.83;103291.63;5048586;28;20568;-45
2023/02/06 04:37:11;;;;;;;20.38;10.70;;;;;;;2.21;86.88;103290.41;5046370;28;20056;-44
2023/02/06 04:39:38;;;;;;;27.38;12.40;;;;;;;2.15;86.63;103286.69;5038175;28;20041;-43
2023/02/06 04:42:05;;;;;;;27.13;10.52;;;;;;;2.12;87.08;103276.19;5047973;28;20143;-43
2023/02/06 04:44:32;;;;;;;20.95;10.93;;;;;;;2.09;86.98;103287.56;5047435;28;20045;-47
2023/02/06 04:47:00;;;;;;;20.58;9.48;;;;;;;2.07;86.76;103277.94;5046463;28;20041;-46
2023/02/06 04:49:27;;;;;;;20.20;10.02;;;;;;;2.03;86.80;103265.81;5040561;28;20041;-44
2023/02/06 04:51:53;;;;;;;21.65;10.13;;;;;;;2.02;86.79;103270.44;5046020;28;20037;-44
2023/02/06 04:54:20;;;;;;;25.67;10.88;;;;;;;2.00;87.08;103260.78;5047676;28;20033;-43
2023/02/06 04:56:47;;;;;;;23.08;11.82;;;;;;;1.97;87.19;103256.63;5044398;28;20052;-44
2023/02/06 04:59:14;;;;;;;26.13;10.90;;;;;;;1.95;86.77;103253.28;5047337;28;20049;-44
2023/02/06 05:01:41;;;;;;;29.13;11.77;;;;;;;1.90;86.80;103255.88;5045962;28;20049;-43
2023/02/06 05:04:08;;;;;;;25.23;13.10;;;;;;;1.83;86.70;103246.88;5048131;28;20045;-43
2023/02/06 05:06:35;;;;;;;22.52;12.07;;;;;;;1.82;87.02;103248.81;5048122;28;20033;-43
2023/02/06 05:09:03;;;;;;;24.13;12.90;;;;;;;1.82;87.19;103254.28;5046319;28;20033;-43
2023/02/06 05:11:30;;;;;;;44.28;14.60;;;;;;;1.82;87.02;103256.16;5044527;28;20045;-46
2023/02/06 05:13:57;;;;;;;28.25;13.70;;;;;;;1.84;87.17;103246.69;5046346;28;20049;-44
2023/02/06 05:16:23;;;;;;;29.45;14.57;;;;;;;1.81;86.97;103252.59;5027256;28;20048;-45
2023/02/06 05:18:55;;;;;;;29.65;13.73;;;;;;;1.81;87.31;103247.13;5041058;28;20128;-46
2023/02/06 05:21:23;;;;;;;25.02;10.77;;;;;;;1.78;87.13;103250.31;5031351;28;20053;-45
2023/02/06 05:23:50;;;;;;;24.95;13.07;;;;;;;1.73;87.03;103250.16;5037384;28;20384;-43
2023/02/06 05:26:18;;;;;;;34.00;13.10;;;;;;;1.71;87.33;103245.97;5049026;28;20101;-45
2023/02/06 05:28:44;;;;;;;24.30;12.32;;;;;;;1.70;87.37;103245.13;5049029;28;20052;-44
2023/02/06 05:31:18;;;;;;;31.40;12.20;;;;;;;1.68;87.53;103244.53;5049151;28;20045;-44
2023/02/06 05:33:50;;;;;;;29.52;12.40;;;;;;;1.69;87.50;103231.72;5048626;28;20094;-45
2023/02/06 05:36:18;;;;;;;30.15;12.30;;;;;;;1.69;87.14;103227.09;5044386;28;20128;-44
2023/02/06 05:38:46;;;;;;;23.38;13.82;;;;;;;1.64;87.37;103232.38;5061790;28;20044;-50
2023/02/06 05:41:13;;;;;;;30.13;12.10;;;;;;;1.61;87.31;103227.38;5030969;28;20152;-44
2023/02/06 05:43:40;;;;;;;25.35;11.13;;;;;;;1.60;87.24;103231.16;5048490;28;20132;-45
2023/02/06 05:46:07;;;;;;;27.13;11.15;;;;;;;1.62;87.27;103220.00;5047539;28;20045;-44
2023/02/06 05:48:34;;;;;;;29.92;10.32;;;;;;;1.65;87.13;103234.06;5044160;28;20120;-44
2023/02/06 05:51:01;;;;;;;20.48;9.68;;;;;;;1.67;87.42;103221.00;5041362;28;20049;-44
2023/02/06 05:53:27;;;;;;;23.50;10.75;;;;;;;1.65;86.97;103227.75;5044372;28;20037;-46
2023/02/06 05:55:54;;;;;;;23.38;11.20;;;;;;;1.62;87.15;103226.31;5041014;28;20049;-43
2023/02/06 05:58:21;;;;;;;19.90;9.68;;;;;;;1.63;87.26;103235.34;5028633;28;20051;-45
2023/02/06 06:00:48;;;;;;;23.83;11.50;;;;;;;1.62;86.94;103231.78;5040578;28;20045;-49
2023/02/06 06:03:15;;;;;;;21.40;9.82;;;;;;;1.58;87.19;103241.47;5045939;28;20056;-44
2023/02/06 06:05:41;;;;;;;24.13;10.60;;;;;;;1.51;87.07;103246.16;5044516;28;20576;-46
2023/02/06 06:08:08;;;;;;;15.73;9.23;;;;;;;1.50;87.28;103244.50;5044765;28;20056;-43
2023/02/06 06:10:35;;;;;;;21.10;8.50;;;;;;;1.50;87.34;103239.03;5041982;28;20037;-48
2023/02/06 06:13:02;;;;;;;18.83;9.32;;;;;;;1.51;87.28;103235.22;5045403;28;20128;-44
2023/02/06 06:15:29;;;;;;;25.63;9.32;;;;;;;1.51;87.48;103246.16;5045113;28;20045;-45
2023/02/06 06:17:56;;;;;;;18.65;8.60;;;;;;;1.51;87.25;103239.88;5033635;28;20047;-48
2023/02/06 06:20:22;;;;;;;17.48;8.13;;;;;;;1.45;87.30;103241.59;5041052;28;20065;-44
2023/02/06 06:22:49;;;;;;;17.17;8.38;;;;;;;1.42;87.34;103238.47;5044813;28;20501;-47
2023/02/06 06:25:16;;;;;;;13.02;7.25;;;;;;;1.41;87.62;103245.00;5046529;28;20071;-43
2023/02/06 06:27:43;;;;;;;16.08;8.60;;;;;;;1.36;87.39;103240.22;5039217;28;20053;-44
2023/02/06 06:30:11;;;;;;;19.38;8.75;;;;;;;1.37;87.58;103232.84;5038967;28;20380;-50
2023/02/06 06:32:37;;;;;;;15.50;8.25;;;;;;;1.39;87.61;103231.56;5022177;28;20052;-44
2023/02/06 06:35:04;;;;;;;20.17;8.80;;;;;;;1.38;87.54;103237.28;5029453;28;20060;-46
2023/02/06 06:37:31;;;;;;;30.10;8.75;;;;;;;1.33;87.55;103226.16;5048158;28;20053;-44
2023/02/06 06:39:58;;;;;;;19.00;9.07;;;;;;;1.31;87.69;103223.66;5047996;28;20072;-43
2023/02/06 06:42:25;;;;;;;22.83;8.20;;;;;;;1.30;87.89;103235.63;5030921;28;20440;-44
2023/02/06 06:44:51;;;;;;;13.48;7.88;;;;;;;1.32;87.87;103230.81;5048325;28;20037;-45
2023/02/06 06:47:18;;;;;;;25.25;9.82;;;;;;;1.31;87.52;103229.13;5044220;28;20494;-44
2023/02/06 06:49:44;;;;;;;18.13;7.45;;;;;;;1.33;87.91;103227.00;5041060;28;20507;-43
2023/02/06 06:52:11;;;;;;;17.35;5.95;;;;;;;1.36;87.82;103220.25;5049011;28;20045;-44
2023/02/06 06:54:50;;;;;;;8.95;5.30;;;;;;;1.44;87.93;103218.09;5034178;28;20041;-45
2023/02/06 06:57:18;;;;;;;5.00;3.17;;;;;;;1.55;87.97;103220.09;5051687;28;20041;-45
2023/02/06 06:59:45;;;;;;;6.50;3.38;;;;;;;1.72;88.27;103221.16;5050233;28;20040;-44
2023/02/06 07:02:12;;;;;;;10.00;2.60;;;;;;;1.87;88.01;103222.69;5049763;28;20053;-45
2023/02/06 07:04:42;;;;;;;8.75;3.25;;;;;;;1.99;87.86;103220.88;5051088;28;20120;-44
2023/02/06 07:07:08;;;;;;;14.57;3.72;;;;;;;2.06;87.56;103216.19;5050044;28;20102;-45
2023/02/06 07:09:35;;;;;;;5.10;3.15;;;;;;;2.12;87.84;103207.06;5044105;28;20049;-43
2023/02/06 07:12:02;;;;;;;7.22;3.17;;;;;;;2.17;88.11;103212.69;5050325;28;20041;-45
2023/02/06 07:14:29;;;;;;;5.85;3.05;;;;;;;2.20;87.78;103195.81;5047039;28;20033;-44
2023/02/06 07:16:55;;;;;;;8.30;3.38;;;;;;;2.21;87.89;103205.69;5047168;28;20400;-44
2023/02/06 07:19:22;;;;;;;11.32;3.63;;;;;;;2.23;87.73;103196.19;5046443;28;20080;-45
2023/02/06 07:21:49;;;;;;;3.38;2.90;;;;;;;2.28;87.72;103206.44;5045972;28;20052;-44
2023/02/06 07:24:15;;;;;;;6.80;2.88;;;;;;;2.31;88.22;103201.34;5037001;28;20151;-44
2023/02/06 07:26:42;;;;;;;4.40;2.67;;;;;;;2.36;87.91;103196.00;5031786;28;20041;-43
2023/02/06 07:29:09;;;;;;;7.45;3.03;;;;;;;2.39;88.09;103200.19;5046638;28;22868;-44
2023/02/06 07:31:35;;;;;;;7.25;3.20;;;;;;;2.43;88.40;103201.41;5048797;28;20498;-44
2023/02/06 07:34:02;;;;;;;13.10;4.05;;;;;;;2.46;88.04;103199.03;5044634;28;20037;-45
2023/02/06 07:36:29;;;;;;;10.45;3.28;;;;;;;2.51;88.45;103208.44;5046804;28;20052;-45
2023/02/06 07:38:56;;;;;;;5.70;3.30;;;;;;;2.52;88.35;103205.47;5047229;28;20391;-44
2023/02/06 07:41:23;;;;;;;10.93;3.58;;;;;;;2.52;88.17;103205.47;5044779;28;20045;-44
2023/02/06 07:43:52;;;;;;;7.05;2.83;;;;;;;2.50;88.17;103191.22;5051669;28;20502;-44
2023/02/06 07:46:19;;;;;;;5.15;2.35;;;;;;;2.50;88.33;103207.63;5050464;28;20037;-44
2023/02/06 07:48:46;;;;;;;7.30;2.47;;;;;;;2.50;88.45;103199.41;5050794;28;20072;-45
2023/02/06 07:51:13;;;;;;;6.82;2.22;;;;;;;2.54;88.82;103208.00;5047490;28;20438;-46
2023/02/06 07:53:39;;;;;;;7.03;2.55;;;;;;;2.56;88.71;103205.84;5051096;28;20044;-45
2023/02/06 07:56:15;;;;;;;3.63;2.50;;;;;;;2.57;88.47;103199.34;5050425;28;20049;-49
2023/02/06 07:58:43;;;;;;;5.72;1.80;;;;;;;2.57;89.01;103202.88;5050825;28;20045;-44
2023/02/06 08:01:09;;;;;;;4.57;2.58;;;;;;;2.59;88.91;103208.13;5050001;28;20045;-44
2023/02/06 08:03:36;;;;;;;5.32;3.17;;;;;;;2.60;88.73;103213.34;5053774;28;20078;-44
2023/02/06 08:06:11;;;;;;;6.00;4.85;;;;;;;2.65;89.04;103216.22;5052846;28;20055;-45
2023/02/06 08:08:38;;;;;;;5.82;2.50;;;;;;;2.69;89.05;103211.13;5050532;28;20056;-44
2023/02/06 08:11:06;;;;;;;4.00;2.30;;;;;;;2.72;89.12;103206.03;5033113;28;20049;-44
2023/02/06 08:13:34;;;;;;;4.18;2.08;;;;;;;2.78;89.03;103213.28;5042934;28;20079;-45
2023/02/06 08:16:05;;;;;;;4.05;2.65;;;;;;;2.82;89.03;103205.47;5041208;28;20409;-46
2023/02/06 08:18:32;;;;;;;6.15;2.15;;;;;;;2.87;89.31;103211.91;5041437;28;20487;-52
2023/02/06 08:21:06;;;;;;;12.20;5.40;;;;;;;2.90;89.01;103214.19;5045098;28;20513;-45
2023/02/06 08:23:35;;;;;;;13.73;5.35;;;;;;;2.93;89.11;103210.97;5038718;28;20053;-49
2023/02/06 08:26:14;;;;;;;25.48;11.30;;;;;;;2.98;88.95;103204.78;5036435;28;20045;-45
2023/02/06 08:28:42;;;;;;;21.55;7.45;;;;;;;3.01;89.17;103210.66;5042823;28;20143;-48
2023/02/06 08:31:10;;;;;;;17.27;7.78;;;;;;;3.08;89.22;103205.88;5035227;28;20489;-45
2023/02/06 08:33:37;;;;;;;22.23;9.32;;;;;;;3.15;89.39;103215.91;5045279;28;20044;-46
2023/02/06 08:36:05;;;;;;;21.45;10.40;;;;;;;3.22;89.07;103205.66;5045924;28;20143;-44
2023/02/06 08:38:31;;;;;;;34.92;11.80;;;;;;;3.26;89.40;103213.16;5021916;28;20065;-47
2023/02/06 08:40:58;;;;;;;37.08;13.57;;;;;;;3.31;89.38;103204.25;5036713;28;20040;-44
2023/02/06 08:43:25;;;;;;;23.48;7.70;;;;;;;3.36;89.47;103207.13;5032105;28;20057;-46
2023/02/06 08:45:55;;;;;;;59.28;18.60;;;;;;;3.40;89.15;103209.13;5042474;28;20040;-44
2023/02/06 08:48:22;;;;;;;38.25;14.38;;;;;;;3.46;89.36;103208.19;5035717;28;20041;-45
2023/02/06 08:50:48;;;;;;;43.13;13.60;;;;;;;3.52;89.49;103201.75;5025882;28;20055;-45
2023/02/06 08:53:15;;;;;;;26.00;11.00;;;;;;;3.58;89.63;103203.53;5039701;28;20049;-49
2023/02/06 08:55:42;;;;;;;15.93;7.50;;;;;;;3.66;90.00;103207.81;5043803;28;20052;-45
2023/02/06 08:58:09;;;;;;;17.73;6.55;;;;;;;3.71;90.03;103207.94;5037682;28;20103;-46
2023/02/06 09:00:35;;;;;;;24.95;8.35;;;;;;;3.77;89.63;103204.25;5039685;28;20045;-47
2023/02/06 09:03:04;;;;;;;19.55;7.75;;;;;;;3.88;89.88;103199.81;5011900;28;20057;-44
2023/02/06 09:05:31;;;;;;;14.57;5.47;;;;;;;3.96;89.89;103199.44;5019505;28;20049;-45
2023/02/06 09:07:59;;;;;;;10.45;5.05;;;;;;;4.04;89.88;103208.13;5028390;28;20037;-48
2023/02/06 09:10:26;;;;;;;11.90;4.07;;;;;;;4.12;90.08;103201.44;5023289;28;20064;-46
2023/02/06 09:12:54;;;;;;;9.40;3.20;;;;;;;4.23;90.44;103203.31;5032637;28;20049;-50
2023/02/06 09:15:21;;;;;;;13.02;3.05;;;;;;;4.33;90.24;103198.03;5014093;28;20041;-45
2023/02/06 09:17:48;;;;;;;7.15;3.10;;;;;;;4.42;90.50;103195.75;5016355;28;20047;-42
2023/02/06 09:20:15;;;;;;;9.93;3.67;;;;;;;4.49;90.35;103193.69;5032258;28;20057;-44
2023/02/06 09:22:43;;;;;;;16.05;3.80;;;;;;;4.59;90.61;103191.13;5034998;28;20045;-45
2023/02/06 09:25:11;;;;;;;12.93;3.75;;;;;;;4.65;90.71;103191.00;5035331;28;20061;-45
2023/02/06 09:27:37;;;;;;;12.48;4.35;;;;;;;4.72;91.10;103194.41;5028298;28;20056;-47
2023/02/06 09:30:04;;;;;;;26.35;6.65;;;;;;;4.79;91.04;103192.31;5033450;28;20041;-47
2023/02/06 09:32:31;;;;;;;12.63;4.75;;;;;;;4.85;91.41;103196.00;5033997;28;20049;-44
2023/02/06 09:34:58;;;;;;;19.75;6.05;;;;;;;4.91;91.38;103189.53;5032502;28;20045;-45
2023/02/06 09:37:25;;;;;;;6.47;2.40;;;;;;;4.95;91.97;103190.69;5035801;28;20045;-49
2023/02/06 09:39:51;;;;;;;9.27;3.13;;;;;;;4.99;92.12;103189.13;5006359;28;20056;-45
2023/02/06 09:42:32;;;;;;;10.60;2.45;;;;;;;5.04;92.01;103189.22;5032456;28;20040;-45
2023/02/06 09:45:15;;;;;;;7.88;1.90;;;;;;;5.12;92.19;103191.53;5025043;28;20442;-47
2023/02/06 09:47:47;;;;;;;7.63;2.08;;;;;;;5.20;92.18;103188.38;5019170;28;20065;-46
2023/02/06 09:50:20;;;;;;;6.18;1.30;;;;;;;5.25;92.08;103188.47;5023004;28;20107;-45
2023/02/06 09:52:56;;;;;;;8.52;2.35;;;;;;;5.32;92.26;103193.81;5035261;28;20516;-45
2023/02/06 09:55:28;;;;;;;10.48;2.90;;;;;;;5.39;91.95;103187.06;5037894;28;20049;-45
2023/02/06 09:58:21;;;;;;;12.10;2.00;;;;;;;5.45;92.13;103196.22;5026924;28;20057;-45
2023/02/06 10:00:54;;;;;;;4.68;1.58;;;;;;;5.53;92.11;103193.84;5035288;28;20084;-43
2023/02/06 10:03:36;;;;;;;4.93;1.77;;;;;;;5.60;92.18;103185.44;5039600;28;20144;-43
2023/02/06 10:06:34;;;;;;;6.03;1.58;;;;;;;5.64;92.09;103180.28;5027351;28;20045;-48
2023/02/06 10:09:09;;;;;;;9.48;1.77;;;;;;;5.66;92.14;103180.84;5029624;28;20041;-43
2023/02/06 10:11:51;;;;;;;11.55;2.17;;;;;;;5.68;92.19;103184.16;5020618;28;20041;-44
2023/02/06 10:14:28;;;;;;;4.07;2.10;;;;;;;5.69;92.29;103169.34;5028861;28;20038;-43
2023/02/06 10:17:00;;;;;;;9.27;1.95;;;;;;;5.72;92.38;103183.41;5028380;28;20056;-47
2023/02/06 10:19:42;;;;;;;8.32;1.83;;;;;;;5.72;92.38;103177.91;5027530;28;20052;-43
2023/02/06 10:22:28;;;;;;;;;;;;;;;5.70;92.50;103168.25;5028541;28;20041;-46
2023/02/06 10:25:19;;;;;;;5.97;2.00;;;;;;;5.68;92.66;103168.50;5028410;28;20398;-44
2023/02/06 10:27:52;;;;;;;7.03;2.30;;;;;;;5.71;92.45;103175.41;5028698;28;20049;-43
2023/02/06 10:30:28;;;;;;;6.28;1.70;;;;;;;5.71;92.71;103168.00;5032329;28;20056;-43
2023/02/06 10:33:11;;;;;;;14.25;3.45;;;;;;;5.77;92.57;103179.91;5032997;28;20056;-43
2023/02/06 10:36:04;;;;;;;7.60;3.33;;;;;;;5.77;92.37;103163.41;5019918;28;20041;-43
2023/02/06 10:38:42;;;;;;;9.75;3.13;;;;;;;5.79;92.20;103164.00;5031851;28;21213;-43
2023/02/06 10:41:32;;;;;;;10.95;1.70;;;;;;;5.77;92.31;103157.94;5031638;28;20037;-46
2023/02/06 10:44:13;;;;;;;15.50;3.58;;;;;;;5.71;92.24;103150.69;5020551;28;20095;-43
2023/02/06 10:46:47;;;;;;;14.50;6.40;;;;;;;5.73;92.22;103143.00;5014490;28;20037;-43
2023/02/06 10:49:22;;;;;;;5.50;3.63;;;;;;;5.79;92.51;103153.00;5032585;28;20077;-43
2023/02/06 10:51:57;;;;;;;10.05;2.88;;;;;;;5.89;92.16;103153.16;5031963;28;20410;-43
2023/02/06 10:54:30;;;;;;;16.52;3.45;;;;;;;5.96;92.26;103142.78;5031493;28;20426;-47
2023/02/06 10:56:58;;;;;;;17.13;3.65;;;;;;;6.06;92.03;103149.25;5031694;28;20045;-46
2023/02/06 10:59:31;;;;;;;14.90;3.75;;;;;;;6.16;92.23;103143.06;5031753;28;20053;-42
2023/02/06 11:02:02;;;;;;;10.35;3.40;;;;;;;6.24;92.21;103153.59;5041963;28;20048;-42
2023/02/06 11:04:37;;;;;;;16.42;6.05;;;;;;;6.34;92.06;103147.38;5044311;28;20068;-42
2023/02/06 11:07:13;;;;;;;15.15;5.03;;;;;;;6.42;92.07;103145.00;5034161;28;20048;-44
2023/02/06 11:09:40;;;;;;;6.38;3.17;;;;;;;6.50;91.91;103147.28;5051302;28;20044;-42
2023/02/06 11:12:22;;;;;;;7.22;2.20;;;;;;;6.57;91.61;103150.66;5050968;28;20044;-43
2023/02/06 11:14:53;;;;;;;4.68;1.90;;;;;;;6.61;91.91;103134.44;5042396;28;20037;-42
2023/02/06 11:17:22;;;;;;;16.83;3.72;;;;;;;6.68;91.78;103132.31;5033612;28;20110;-42
2023/02/06 11:19:51;;;;;;;4.82;1.80;;;;;;;6.74;91.47;103134.88;5050425;28;20069;-42
2023/02/06 11:22:30;;;;;;;3.65;1.00;;;;;;;6.78;91.44;103137.91;5027157;28;20045;-43
2023/02/06 11:25:17;;;;;;;6.32;2.67;;;;;;;6.80;91.25;103133.00;5045756;28;20111;-43
2023/02/06 11:27:44;;;;;;;4.13;1.08;;;;;;;6.83;90.97;103132.44;5047496;28;20049;-43
2023/02/06 11:30:30;;;;;;;6.63;1.23;;;;;;;6.84;91.13;103134.09;5045329;28;20521;-42
2023/02/06 11:33:05;;;;;;;5.85;2.35;;;;;;;6.84;90.91;103130.53;5047128;28;20725;-43
2023/02/06 11:35:50;;;;;;;5.80;0.77;;;;;;;6.87;90.62;103124.50;5044791;28;20114;-44
2023/02/06 11:38:23;;;;;;;5.72;1.30;;;;;;;6.89;90.92;103127.81;5045550;28;20055;-43
2023/02/06 11:41:04;;;;;;;4.20;1.30;;;;;;;6.94;90.81;103127.84;5057954;28;20052;-48